Time;durP1;ratioP1;P1;durP2;ratioP2;P2;SDS_P1;SDS_P2;PMS_P1;PMS_P2;Temp;Humidity;BMP_temperature;BMP_pressure;BME280_temperature;BME280_humidity;BME280_pressure;Samples;Min_cycle;Max_cycle;Signal;HPM_P1;HPM_P2
2021/07/23 00:02:23;;;;;;;20.75;15.80;;;17.30;99.90;;;;;;4993578;28;20056;-69
2021/07/23 00:04:49;;;;;;;18.27;16.38;;;17.30;99.90;;;;;;4992952;28;20022;-69
2021/07/23 00:07:15;;;;;;;25.23;17.10;;;17.30;99.90;;;;;;4993978;28;20029;-69
2021/07/23 00:09:41;;;;;;;23.15;17.67;;;17.20;99.90;;;;;;4993552;28;20023;-69
2021/07/23 00:12:06;;;;;;;21.45;17.23;;;17.20;99.90;;;;;;4976212;28;20030;-69
2021/07/23 00:14:32;;;;;;;27.48;19.13;;;17.20;99.90;;;;;;4992623;28;20097;-69
2021/07/23 00:16:58;;;;;;;22.85;17.88;;;17.10;99.90;;;;;;4993342;28;20026;-70
2021/07/23 00:19:24;;;;;;;29.02;18.70;;;17.10;99.90;;;;;;4993176;28;20066;-70
2021/07/23 00:21:49;;;;;;;25.15;19.15;;;17.00;99.90;;;;;;4993241;28;20117;-69
2021/07/23 00:24:15;;;;;;;25.73;17.52;;;16.90;99.90;;;;;;4992987;28;20093;-68
2021/07/23 00:26:41;;;;;;;24.83;16.67;;;16.90;99.90;;;;;;4993320;28;20043;-71
2021/07/23 00:29:06;;;;;;;25.15;17.38;;;16.90;99.90;;;;;;4993367;28;20029;-71
2021/07/23 00:31:32;;;;;;;22.88;17.30;;;16.80;99.90;;;;;;4993918;28;20019;-71
2021/07/23 00:33:57;;;;;;;27.25;18.85;;;16.80;99.90;;;;;;4993572;28;20033;-69
2021/07/23 00:36:23;;;;;;;24.25;19.40;;;16.70;99.90;;;;;;4992733;28;20085;-70
2021/07/23 00:38:49;;;;;;;24.05;18.58;;;16.70;99.90;;;;;;4992791;28;20074;-71
2021/07/23 00:41:14;;;;;;;23.08;16.55;;;16.70;99.90;;;;;;4993089;28;20113;-71
2021/07/23 00:43:40;;;;;;;22.88;17.17;;;16.60;99.90;;;;;;4992830;28;20026;-70
2021/07/23 00:46:06;;;;;;;24.77;18.42;;;16.60;99.90;;;;;;4992200;28;20026;-70
2021/07/23 00:48:32;;;;;;;21.95;18.05;;;16.60;99.90;;;;;;4993099;28;20109;-71
2021/07/23 00:50:58;;;;;;;22.95;17.90;;;16.60;99.90;;;;;;4972375;28;20732;-69
2021/07/23 00:53:24;;;;;;;28.30;17.15;;;16.50;99.90;;;;;;4973890;28;20026;-69
2021/07/23 00:55:54;;;;;;;21.10;17.25;;;16.50;99.90;;;;;;4972797;28;20046;-71
2021/07/23 00:58:21;;;;;;;23.67;16.83;;;16.50;99.90;;;;;;4973269;28;20031;-71
2021/07/23 01:00:47;;;;;;;22.55;18.02;;;16.40;99.90;;;;;;4973101;28;20134;-70
2021/07/23 01:03:14;;;;;;;29.85;18.85;;;16.30;99.90;;;;;;4973345;28;20106;-71
2021/07/23 01:05:39;;;;;;;27.15;17.92;;;16.20;99.90;;;;;;4972947;28;20049;-70
2021/07/23 01:08:05;;;;;;;24.27;17.73;;;16.20;99.90;;;;;;4973524;28;20058;-69
2021/07/23 01:10:32;;;;;;;25.77;18.38;;;16.30;99.90;;;;;;4973219;28;20030;-68
2021/07/23 01:13:00;;;;;;;23.00;18.77;;;16.30;99.90;;;;;;4973269;28;20106;-71
2021/07/23 01:15:25;;;;;;;26.33;19.77;;;16.20;99.90;;;;;;4972688;28;20035;-71
2021/07/23 01:17:51;;;;;;;22.73;17.00;;;16.20;99.90;;;;;;4973224;28;20054;-71
2021/07/23 01:20:23;;;;;;;22.73;17.17;;;16.20;99.90;;;;;;4976472;28;20392;-70
2021/07/23 01:22:50;;;;;;;25.95;17.90;;;16.30;99.90;;;;;;4992476;28;20034;-70
2021/07/23 01:25:16;;;;;;;28.70;18.20;;;16.20;99.90;;;;;;4991872;28;20503;-71
2021/07/23 01:27:50;;;;;;;26.88;18.25;;;16.20;99.90;;;;;;4992727;28;20034;-70
2021/07/23 01:30:17;;;;;;;27.95;18.20;;;16.20;99.90;;;;;;4992113;28;20026;-70
2021/07/23 01:32:43;;;;;;;21.20;17.38;;;16.10;99.90;;;;;;4975089;28;20034;-70
2021/07/23 01:35:10;;;;;;;22.95;17.42;;;16.10;99.90;;;;;;4991870;28;20027;-70
2021/07/23 01:37:37;;;;;;;26.48;17.45;;;15.90;99.90;;;;;;4992559;28;20109;-70
2021/07/23 01:40:03;;;;;;;25.05;17.92;;;16.00;99.90;;;;;;4992452;28;20031;-69
2021/07/23 01:42:31;;;;;;;24.27;17.77;;;16.00;99.90;;;;;;4992489;28;20073;-70
2021/07/23 01:44:56;;;;;;;24.95;17.85;;;16.00;99.90;;;;;;4991142;28;20444;-69
2021/07/23 01:47:22;;;;;;;26.85;18.30;;;16.00;99.90;;;;;;4995042;28;20025;-70
2021/07/23 01:49:48;;;;;;;25.85;18.58;;;16.00;99.90;;;;;;4995872;28;20022;-70
2021/07/23 01:52:14;;;;;;;24.50;17.60;;;15.90;99.90;;;;;;4996019;28;20023;-69
2021/07/23 01:54:40;;;;;;;23.08;17.63;;;15.90;99.90;;;;;;4995383;28;20038;-70
2021/07/23 01:57:06;;;;;;;23.98;18.13;;;15.80;99.90;;;;;;4996136;28;20462;-71
2021/07/23 01:59:32;;;;;;;23.85;17.65;;;15.80;99.90;;;;;;4995582;28;20038;-70
2021/07/23 02:01:58;;;;;;;25.88;17.27;;;15.70;99.90;;;;;;4995538;28;20058;-69
2021/07/23 02:04:24;;;;;;;25.08;17.70;;;15.70;99.90;;;;;;4995349;28;20022;-70
2021/07/23 02:06:50;;;;;;;23.73;18.83;;;15.70;99.90;;;;;;4995760;28;20045;-70
2021/07/23 02:09:16;;;;;;;26.90;18.27;;;15.60;99.90;;;;;;4978219;28;20026;-70
2021/07/23 02:11:41;;;;;;;29.50;18.83;;;15.60;99.90;;;;;;4995691;28;20105;-71
2021/07/23 02:14:07;;;;;;;27.42;20.33;;;15.60;99.90;;;;;;4995643;28;20116;-71
2021/07/23 02:16:34;;;;;;;25.13;17.95;;;15.50;99.90;;;;;;4994830;28;20019;-70
2021/07/23 02:19:00;;;;;;;25.30;19.90;;;15.50;99.90;;;;;;4995588;28;20030;-69
2021/07/23 02:21:26;;;;;;;29.08;20.55;;;15.50;99.90;;;;;;4982766;28;20076;-70
2021/07/23 02:23:51;;;;;;;28.42;19.85;;;15.50;99.90;;;;;;4981041;28;20027;-70
2021/07/23 02:26:22;;;;;;;25.05;18.23;;;15.50;99.90;;;;;;4976867;28;20042;-71
2021/07/23 02:28:48;;;;;;;31.00;20.77;;;15.50;99.90;;;;;;4975673;28;20413;-70
2021/07/23 02:31:16;;;;;;;28.35;20.02;;;15.40;99.90;;;;;;4975446;28;20401;-70
2021/07/23 02:33:42;;;;;;;26.30;19.45;;;15.40;99.90;;;;;;4975572;28;20058;-70
2021/07/23 02:36:08;;;;;;;26.13;18.95;;;15.40;99.90;;;;;;4974696;28;20035;-70
2021/07/23 02:38:33;;;;;;;29.65;19.75;;;15.30;99.90;;;;;;4975512;28;20392;-70
2021/07/23 02:40:59;;;;;;;27.88;20.02;;;15.30;99.90;;;;;;4974260;28;20027;-71
2021/07/23 02:43:24;;;;;;;31.15;21.08;;;15.30;99.90;;;;;;4975292;28;20066;-70
2021/07/23 02:45:50;;;;;;;28.98;20.70;;;15.20;99.90;;;;;;4973466;28;20117;-71
2021/07/23 02:48:16;;;;;;;25.63;20.75;;;15.20;99.90;;;;;;4975706;28;20026;-71
2021/07/23 02:50:42;;;;;;;27.35;21.85;;;15.20;99.90;;;;;;4982254;28;20497;-70
2021/07/23 02:53:08;;;;;;;25.17;19.55;;;15.20;99.90;;;;;;4976865;28;20034;-70
2021/07/23 02:55:34;;;;;;;31.77;20.67;;;15.10;99.90;;;;;;4993097;28;20034;-70
2021/07/23 02:58:00;;;;;;;27.88;21.60;;;15.00;99.90;;;;;;4994235;28;20034;-70
2021/07/23 03:00:26;;;;;;;30.23;20.17;;;15.00;99.90;;;;;;4994137;28;20188;-69
2021/07/23 03:02:51;;;;;;;29.83;20.23;;;15.00;99.90;;;;;;4994594;28;20030;-69
2021/07/23 03:05:17;;;;;;;26.95;19.98;;;15.00;99.90;;;;;;4976647;28;20026;-70
2021/07/23 03:07:43;;;;;;;30.10;21.67;;;14.90;99.90;;;;;;4994732;28;20541;-71
2021/07/23 03:10:09;;;;;;;27.10;20.60;;;15.00;99.90;;;;;;4994511;28;20094;-70
2021/07/23 03:12:35;;;;;;;31.17;21.27;;;15.00;99.90;;;;;;4994593;28;20101;-70
2021/07/23 03:15:01;;;;;;;25.58;19.10;;;15.00;99.90;;;;;;4993755;28;20501;-70
2021/07/23 03:17:27;;;;;;;24.23;18.77;;;15.00;99.90;;;;;;4994822;28;20480;-70
2021/07/23 03:19:52;;;;;;;28.48;19.30;;;15.00;99.90;;;;;;4996597;28;20041;-70
2021/07/23 03:22:18;;;;;;;26.13;20.30;;;15.00;99.90;;;;;;4976894;28;20038;-70
2021/07/23 03:24:44;;;;;;;32.35;20.20;;;14.90;99.90;;;;;;4974458;28;20030;-70
2021/07/23 03:27:10;;;;;;;26.98;20.23;;;14.80;99.90;;;;;;4974854;28;20429;-70
2021/07/23 03:29:36;;;;;;;28.63;20.67;;;14.80;99.90;;;;;;4971946;28;20035;-70
2021/07/23 03:32:01;;;;;;;28.30;19.98;;;14.80;99.90;;;;;;4991228;28;20467;-70
2021/07/23 03:34:27;;;;;;;34.85;21.30;;;14.80;99.90;;;;;;4993025;28;20049;-69
2021/07/23 03:36:53;;;;;;;30.27;20.90;;;14.80;99.90;;;;;;4976062;28;20026;-70
2021/07/23 03:39:18;;;;;;;32.08;21.25;;;14.80;99.90;;;;;;4993540;28;20073;-70
2021/07/23 03:41:44;;;;;;;29.40;20.67;;;14.80;99.90;;;;;;4975582;28;20031;-70
2021/07/23 03:44:10;;;;;;;30.67;21.88;;;14.80;99.90;;;;;;4993717;28;20076;-69
2021/07/23 03:46:35;;;;;;;32.15;20.80;;;14.80;99.90;;;;;;4975390;28;20030;-70
2021/07/23 03:49:01;;;;;;;34.95;21.20;;;14.70;99.90;;;;;;4993447;28;20079;-70
2021/07/23 03:51:26;;;;;;;29.02;21.25;;;14.70;99.90;;;;;;4992010;28;20030;-70
2021/07/23 03:53:52;;;;;;;30.70;22.10;;;14.60;99.90;;;;;;4993463;28;20026;-70
2021/07/23 03:56:18;;;;;;;29.02;21.08;;;14.70;99.90;;;;;;4992860;28;20030;-69
2021/07/23 03:58:43;;;;;;;29.55;21.20;;;14.70;99.90;;;;;;4993345;28;20520;-70
2021/07/23 04:01:09;;;;;;;29.95;21.48;;;14.60;99.90;;;;;;5012099;23;20141;-70
2021/07/23 04:03:35;;;;;;;30.50;21.00;;;14.70;99.90;;;;;;4980676;28;20389;-70
2021/07/23 04:06:01;;;;;;;35.00;21.30;;;14.70;99.90;;;;;;4971795;28;20071;-71
2021/07/23 04:08:27;;;;;;;27.05;20.95;;;14.70;99.90;;;;;;4973358;28;20098;-70
2021/07/23 04:10:53;;;;;;;32.42;21.35;;;14.70;99.90;;;;;;4972722;28;20018;-71
2021/07/23 04:13:19;;;;;;;29.85;22.13;;;14.70;99.90;;;;;;4973626;28;20033;-70
2021/07/23 04:15:45;;;;;;;30.98;22.80;;;14.60;99.90;;;;;;4972670;28;20034;-72
2021/07/23 04:18:10;;;;;;;31.35;22.23;;;14.60;99.90;;;;;;4973834;28;20034;-70
2021/07/23 04:20:36;;;;;;;34.95;22.42;;;14.60;99.90;;;;;;4973527;28;20035;-70
2021/07/23 04:23:01;;;;;;;31.00;24.38;;;14.70;99.90;;;;;;4974554;28;20114;-70
2021/07/23 04:25:27;;;;;;;29.98;21.30;;;14.60;99.90;;;;;;4984063;28;20023;-72
2021/07/23 04:27:53;;;;;;;30.70;22.15;;;14.70;99.90;;;;;;4992961;28;20099;-72
2021/07/23 04:30:19;;;;;;;31.33;22.83;;;14.70;99.90;;;;;;5002032;28;20379;-71
2021/07/23 04:32:46;;;;;;;33.13;22.88;;;14.70;99.90;;;;;;5012236;28;20026;-71
2021/07/23 04:35:12;;;;;;;30.42;23.40;;;14.50;99.90;;;;;;5011616;28;20484;-71
2021/07/23 04:37:38;;;;;;;30.55;22.83;;;14.60;99.90;;;;;;5012641;28;20553;-71
2021/07/23 04:40:06;;;;;;;32.33;21.67;;;14.70;99.90;;;;;;5011941;28;20117;-71
2021/07/23 04:42:34;;;;;;;30.88;22.25;;;14.70;99.90;;;;;;5012068;28;20022;-71
2021/07/23 04:45:03;;;;;;;31.67;20.92;;;14.70;99.90;;;;;;4978591;28;20038;-71
2021/07/23 04:47:28;;;;;;;30.08;20.70;;;14.80;99.90;;;;;;4973939;28;20149;-70
2021/07/23 04:49:54;;;;;;;26.10;19.88;;;14.80;99.90;;;;;;4973432;28;20093;-71
2021/07/23 04:52:19;;;;;;;27.23;20.35;;;14.90;99.90;;;;;;4982260;28;20573;-70
2021/07/23 04:54:45;;;;;;;27.73;19.90;;;14.90;99.90;;;;;;4991670;28;20508;-70
2021/07/23 04:57:14;;;;;;;29.98;20.83;;;14.90;99.90;;;;;;4992824;28;20093;-70
2021/07/23 04:59:40;;;;;;;28.10;20.38;;;14.90;99.90;;;;;;4997299;28;20109;-71
2021/07/23 05:02:05;;;;;;;26.45;19.15;;;15.00;99.90;;;;;;5012140;28;20133;-70
2021/07/23 05:04:35;;;;;;;30.13;19.90;;;15.00;99.90;;;;;;5011471;28;20388;-70
2021/07/23 05:07:01;;;;;;;29.20;19.75;;;15.00;99.90;;;;;;5011614;28;20105;-71
2021/07/23 05:09:26;;;;;;;26.73;18.77;;;15.00;99.90;;;;;;5011982;28;20165;-71
2021/07/23 05:11:52;;;;;;;27.17;19.15;;;15.10;99.90;;;;;;5011652;28;20029;-72
2021/07/23 05:14:18;;;;;;;29.88;17.45;;;15.10;99.90;;;;;;5011026;28;20030;-71
2021/07/23 05:16:44;;;;;;;26.80;18.30;;;15.10;99.90;;;;;;5011425;28;20030;-71
2021/07/23 05:19:11;;;;;;;26.23;17.77;;;15.10;99.90;;;;;;5011395;28;20026;-71
2021/07/23 05:21:37;;;;;;;25.10;16.33;;;15.10;99.90;;;;;;5009637;28;20026;-70
2021/07/23 05:24:04;;;;;;;28.92;17.17;;;15.20;99.90;;;;;;5010509;28;20022;-71
2021/07/23 05:26:38;;;;;;;24.75;18.15;;;15.30;99.90;;;;;;4970543;28;20031;-71
2021/07/23 05:29:04;;;;;;;23.42;16.92;;;15.40;99.90;;;;;;4972287;28;20507;-70
2021/07/23 05:31:30;;;;;;;24.33;16.33;;;15.50;99.90;;;;;;4970969;28;20370;-70
2021/07/23 05:34:01;;;;;;;21.75;16.23;;;15.80;99.90;;;;;;4972505;28;20027;-70
2021/07/23 05:36:27;;;;;;;24.88;16.38;;;15.80;99.90;;;;;;4970067;28;20027;-70
2021/07/23 05:38:53;;;;;;;21.45;15.07;;;15.90;99.90;;;;;;4981403;28;20358;-70
2021/07/23 05:41:19;;;;;;;25.55;17.17;;;15.90;99.90;;;;;;4991415;28;20026;-74
2021/07/23 05:43:45;;;;;;;21.15;16.15;;;16.10;99.90;;;;;;4977286;28;20031;-70
2021/07/23 05:46:10;;;;;;;26.77;16.15;;;16.10;99.90;;;;;;4985528;28;20037;-69
2021/07/23 05:48:37;;;;;;;24.95;16.85;;;16.00;99.90;;;;;;5011195;28;20057;-69
2021/07/23 05:51:06;;;;;;;23.13;17.35;;;16.10;99.90;;;;;;5010836;28;20562;-69
2021/07/23 05:53:32;;;;;;;22.05;16.52;;;16.20;99.90;;;;;;5011056;28;20073;-69
2021/07/23 05:55:58;;;;;;;21.63;17.08;;;16.10;99.90;;;;;;5009525;28;20565;-69
2021/07/23 05:58:25;;;;;;;21.60;16.23;;;16.20;99.90;;;;;;5001339;28;20023;-69
2021/07/23 06:00:51;;;;;;;24.05;16.63;;;16.30;99.90;;;;;;4991159;28;20030;-69
2021/07/23 06:03:17;;;;;;;21.52;15.75;;;16.30;99.90;;;;;;4990867;28;20033;-70
2021/07/23 06:05:42;;;;;;;22.38;15.48;;;16.40;99.90;;;;;;4990817;28;20452;-69
2021/07/23 06:08:08;;;;;;;25.00;15.63;;;16.30;99.90;;;;;;4991435;28;20499;-69
2021/07/23 06:10:33;;;;;;;18.40;14.60;;;16.20;99.90;;;;;;4991259;28;20030;-69
2021/07/23 06:12:59;;;;;;;25.77;15.65;;;16.30;99.90;;;;;;4991429;28;20085;-69
2021/07/23 06:15:25;;;;;;;17.95;14.23;;;16.40;99.90;;;;;;5000352;28;20048;-68
2021/07/23 06:17:50;;;;;;;22.65;14.43;;;16.60;99.90;;;;;;4988759;28;20081;-68
2021/07/23 06:20:16;;;;;;;17.42;13.60;;;16.60;99.90;;;;;;4991014;28;20029;-69
2021/07/23 06:22:42;;;;;;;17.63;14.27;;;16.70;99.90;;;;;;4989910;28;20045;-68
2021/07/23 06:25:09;;;;;;;22.20;14.95;;;16.70;99.90;;;;;;4986721;28;20065;-68
2021/07/23 06:27:34;;;;;;;22.33;14.75;;;16.80;99.90;;;;;;4988983;28;20026;-68
2021/07/23 06:30:00;;;;;;;20.70;14.23;;;16.80;99.90;;;;;;4994036;28;20502;-69
2021/07/23 06:32:28;;;;;;;18.98;13.10;;;16.80;99.90;;;;;;4973177;28;20042;-69
2021/07/23 06:34:54;;;;;;;16.85;13.60;;;16.90;99.90;;;;;;4975027;28;20027;-69
2021/07/23 06:37:23;;;;;;;18.33;13.85;;;17.10;99.90;;;;;;4994152;28;20044;-69
2021/07/23 06:39:50;;;;;;;19.10;14.25;;;17.40;99.90;;;;;;4994539;28;20022;-68
2021/07/23 06:42:16;;;;;;;18.08;13.63;;;17.40;99.90;;;;;;4990129;28;20031;-68
2021/07/23 06:44:42;;;;;;;21.85;13.25;;;17.60;99.90;;;;;;4981342;28;20023;-67
2021/07/23 06:47:08;;;;;;;17.27;13.43;;;17.60;99.90;;;;;;4994701;28;20034;-67
2021/07/23 06:49:34;;;;;;;23.42;14.35;;;17.60;99.90;;;;;;4995618;28;20018;-67
2021/07/23 06:52:01;;;;;;;17.65;13.82;;;17.90;99.90;;;;;;4995035;28;20030;-67
2021/07/23 06:54:26;;;;;;;20.00;13.73;;;18.10;99.90;;;;;;4994025;28;20069;-68
2021/07/23 06:56:52;;;;;;;19.08;14.13;;;18.10;99.90;;;;;;4984624;28;20027;-67
2021/07/23 06:59:18;;;;;;;17.10;12.88;;;18.00;99.90;;;;;;4986028;28;20018;-67
2021/07/23 07:01:44;;;;;;;16.73;12.25;;;18.20;99.90;;;;;;5012870;28;20103;-68
2021/07/23 07:04:09;;;;;;;19.50;13.15;;;18.40;99.90;;;;;;5014337;28;20103;-66
2021/07/23 07:06:35;;;;;;;18.60;13.15;;;18.50;99.90;;;;;;5013390;28;20026;-67
2021/07/23 07:09:01;;;;;;;18.75;12.73;;;18.60;99.90;;;;;;5014340;28;20440;-67
2021/07/23 07:11:26;;;;;;;19.55;12.80;;;18.70;99.90;;;;;;5014356;28;20037;-67
2021/07/23 07:13:52;;;;;;;19.38;13.10;;;18.70;99.90;;;;;;5014283;28;20023;-67
2021/07/23 07:16:18;;;;;;;20.30;12.57;;;18.80;99.90;;;;;;5012928;28;20060;-68
2021/07/23 07:18:43;;;;;;;15.38;12.57;;;19.00;99.90;;;;;;5005400;28;20758;-68
2021/07/23 07:21:09;;;;;;;17.48;12.43;;;19.30;99.90;;;;;;4974633;28;20063;-70
2021/07/23 07:23:35;;;;;;;20.23;12.95;;;19.40;99.90;;;;;;4974804;28;20030;-69
2021/07/23 07:26:00;;;;;;;18.13;12.55;;;19.60;99.90;;;;;;4974120;28;20397;-69
2021/07/23 07:28:26;;;;;;;18.35;12.40;;;19.70;99.90;;;;;;4974634;28;20370;-69
2021/07/23 07:30:52;;;;;;;16.20;11.68;;;19.70;99.90;;;;;;4979174;28;20485;-70
2021/07/23 07:33:18;;;;;;;16.88;12.40;;;19.50;99.90;;;;;;5013704;28;20034;-69
2021/07/23 07:35:47;;;;;;;15.50;11.82;;;19.60;99.90;;;;;;5012830;28;20022;-69
2021/07/23 07:38:13;;;;;;;17.45;12.93;;;19.90;99.90;;;;;;5013167;28;20037;-69
2021/07/23 07:40:39;;;;;;;18.38;11.45;;;20.10;99.90;;;;;;5011730;28;20026;-68
2021/07/23 07:43:08;;;;;;;16.17;12.85;;;20.00;99.90;;;;;;4995527;28;20030;-69
2021/07/23 07:45:36;;;;;;;13.55;11.35;;;19.90;99.90;;;;;;4994689;28;20021;-68
2021/07/23 07:48:03;;;;;;;19.77;13.18;;;20.10;99.90;;;;;;5013522;28;20041;-68
2021/07/23 07:50:28;;;;;;;19.42;12.52;;;20.30;99.90;;;;;;5013069;28;20097;-68
2021/07/23 07:52:54;;;;;;;18.60;12.32;;;20.40;99.90;;;;;;5013004;28;20462;-68
2021/07/23 07:55:20;;;;;;;16.45;11.82;;;20.70;99.90;;;;;;4998708;28;20034;-68
2021/07/23 07:57:45;;;;;;;19.10;12.00;;;20.80;99.90;;;;;;4992228;28;20046;-68
2021/07/23 08:00:11;;;;;;;16.67;12.25;;;21.20;99.90;;;;;;4992894;28;20125;-68
2021/07/23 08:02:37;;;;;;;14.57;11.63;;;21.60;99.90;;;;;;5007782;28;20030;-68
2021/07/23 08:05:03;;;;;;;19.98;11.90;;;21.50;99.90;;;;;;5010837;28;20022;-68
2021/07/23 08:07:31;;;;;;;14.90;11.02;;;21.60;99.90;;;;;;5012843;28;20025;-68
2021/07/23 08:09:59;;;;;;;14.68;12.15;;;21.70;99.90;;;;;;5012593;28;20068;-68
2021/07/23 08:12:25;;;;;;;11.63;10.07;;;22.00;99.90;;;;;;5009739;28;20049;-69
2021/07/23 08:14:51;;;;;;;17.42;11.20;;;22.20;99.90;;;;;;4972950;28;20051;-69
2021/07/23 08:17:18;;;;;;;18.83;12.30;;;22.70;99.90;;;;;;4973298;28;20038;-68
2021/07/23 08:19:43;;;;;;;17.90;11.40;;;22.30;99.90;;;;;;4992889;28;20061;-68
2021/07/23 08:22:09;;;;;;;17.83;11.13;;;22.30;99.90;;;;;;5012396;28;20057;-68
2021/07/23 08:24:36;;;;;;;15.30;11.60;;;22.50;99.90;;;;;;5010579;28;20446;-67
2021/07/23 08:27:01;;;;;;;15.65;11.23;;;22.80;99.90;;;;;;5011923;28;20021;-68
2021/07/23 08:29:27;;;;;;;14.52;11.75;;;23.00;99.90;;;;;;5012036;28;20472;-67
2021/07/23 08:31:53;;;;;;;14.32;10.43;;;23.20;99.90;;;;;;4994660;28;20049;-67
2021/07/23 08:34:19;;;;;;;11.27;10.10;;;23.40;99.90;;;;;;5011858;28;20057;-68
2021/07/23 08:36:44;;;;;;;14.63;10.18;;;23.60;99.90;;;;;;4993025;28;20571;-68
2021/07/23 08:39:10;;;;;;;12.82;10.35;;;23.90;99.90;;;;;;5011950;28;20148;-67
2021/07/23 08:41:36;;;;;;;13.60;9.98;;;24.20;99.90;;;;;;4994174;28;20105;-67
2021/07/23 08:44:05;;;;;;;14.82;9.02;;;24.50;99.90;;;;;;4990828;28;20365;-67
2021/07/23 08:46:31;;;;;;;11.57;10.20;;;24.60;99.90;;;;;;4992025;28;20104;-69
2021/07/23 08:48:58;;;;;;;14.50;9.60;;;24.90;99.90;;;;;;4992540;28;20350;-67
2021/07/23 08:51:24;;;;;;;11.43;9.48;;;25.30;99.90;;;;;;4972462;28;20034;-68
2021/07/23 08:53:49;;;;;;;12.32;9.32;;;25.20;99.90;;;;;;4972746;28;20486;-67
2021/07/23 08:56:15;;;;;;;16.38;9.88;;;26.40;99.90;;;;;;4971727;28;20477;-67
2021/07/23 08:58:41;;;;;;;12.57;8.88;;;25.70;99.90;;;;;;4972317;28;20070;-69
2021/07/23 09:01:06;;;;;;;12.18;10.27;;;25.50;99.90;;;;;;5004224;28;20103;-67
2021/07/23 09:03:34;;;;;;;17.23;9.45;;;26.70;99.90;;;;;;5011589;28;20119;-67
2021/07/23 09:06:15;;;;;;;9.93;8.63;;;28.10;99.90;;;;;;5011205;28;20515;-67
2021/07/23 09:08:53;;;;;;;12.10;9.05;;;27.60;99.90;;;;;;5010321;28;20056;-67
2021/07/23 09:11:30;;;;;;;13.68;8.43;;;27.60;99.90;;;;;;5011512;28;20038;-67
2021/07/23 09:14:13;;;;;;;8.85;7.85;;;26.80;99.90;;;;;;5011886;28;20041;-67
2021/07/23 09:16:38;;;;;;;11.35;7.90;;;26.70;99.90;;;;;;5010567;28;20025;-67
2021/07/23 09:19:08;;;;;;;10.93;8.10;;;26.90;99.90;;;;;;5010323;28;20045;-67
2021/07/23 09:21:39;;;;;;;15.20;8.93;;;27.40;99.40;;;;;;5011644;28;20108;-67
2021/07/23 09:24:07;;;;;;;10.70;7.90;;;27.20;99.90;;;;;;5011246;28;20087;-67
2021/07/23 09:26:44;;;;;;;8.75;7.95;;;28.30;98.80;;;;;;5010735;28;20116;-66
2021/07/23 09:29:10;;;;;;;12.55;7.95;;;28.00;97.00;;;;;;5011591;28;20026;-66
2021/07/23 09:31:36;;;;;;;9.07;7.45;;;28.70;97.50;;;;;;5011104;28;20515;-67
2021/07/23 09:34:07;;;;;;;15.35;7.50;;;28.50;95.70;;;;;;5011464;28;20034;-67
2021/07/23 09:36:33;;;;;;;8.25;7.35;;;27.90;95.70;;;;;;5010439;28;20030;-67
2021/07/23 09:39:10;;;;;;;10.13;7.72;;;28.80;97.20;;;;;;5011324;28;20109;-67
2021/07/23 09:41:36;;;;;;;10.05;7.75;;;30.00;94.30;;;;;;5011108;28;20075;-68
2021/07/23 09:44:13;;;;;;;8.57;7.30;;;30.60;92.90;;;;;;5009963;28;20487;-68
2021/07/23 09:46:41;;;;;;;8.43;7.28;;;30.70;93.20;;;;;;5010940;28;20403;-68
2021/07/23 09:49:20;;;;;;;7.65;6.82;;;30.10;91.70;;;;;;5009035;28;20041;-68
2021/07/23 09:51:49;;;;;;;9.23;7.40;;;30.50;93.90;;;;;;4995642;28;20045;-67
2021/07/23 09:54:15;;;;;;;8.82;7.30;;;31.20;89.10;;;;;;5010758;28;20021;-68
2021/07/23 09:56:42;;;;;;;8.68;7.38;;;31.90;87.90;;;;;;5010912;28;20029;-66
2021/07/23 09:59:36;;;;;;;11.88;7.43;;;31.20;89.20;;;;;;5010743;28;20026;-66
2021/07/23 10:02:03;;;;;;;8.07;7.05;;;30.90;86.00;;;;;;5032679;23;20046;-67
2021/07/23 10:04:32;;;;;;;8.13;7.28;;;30.10;91.00;;;;;;5010911;28;20563;-66
2021/07/23 10:07:09;;;;;;;12.40;6.82;;;30.80;89.40;;;;;;5011903;28;20563;-66
2021/07/23 10:09:38;;;;;;;11.52;8.20;;;31.00;88.80;;;;;;5014950;28;20033;-68
2021/07/23 10:12:09;;;;;;;7.78;6.90;;;29.00;89.60;;;;;;5015031;28;20025;-66
2021/07/23 10:14:39;;;;;;;7.85;7.10;;;29.10;92.20;;;;;;5014871;28;20076;-66
2021/07/23 10:17:05;;;;;;;11.00;7.20;;;30.20;90.50;;;;;;5014682;28;20033;-66
2021/07/23 10:19:31;;;;;;;10.07;7.45;;;30.30;91.10;;;;;;5014734;28;20052;-66
2021/07/23 10:21:58;;;;;;;7.22;6.53;;;30.40;88.80;;;;;;5014859;28;20030;-68
2021/07/23 10:24:30;;;;;;;9.98;7.22;;;30.70;88.30;;;;;;5014633;28;20022;-67
2021/07/23 10:26:57;;;;;;;12.40;7.38;;;31.70;86.70;;;;;;5014895;28;20053;-67
2021/07/23 10:29:49;;;;;;;10.05;7.63;;;31.60;85.30;;;;;;4996718;28;20026;-67
2021/07/23 10:32:26;;;;;;;13.10;8.02;;;31.30;83.30;;;;;;5014286;28;20033;-67
2021/07/23 10:34:57;;;;;;;9.10;7.63;;;31.60;87.10;;;;;;5014693;28;20508;-69
2021/07/23 10:37:32;;;;;;;14.95;8.05;;;31.00;84.80;;;;;;5015151;28;20050;-67
2021/07/23 10:40:10;;;;;;;10.18;9.05;;;30.40;88.40;;;;;;5014783;28;20037;-67
2021/07/23 10:42:42;;;;;;;9.68;8.65;;;31.00;86.00;;;;;;5014106;28;20030;-66
2021/07/23 10:45:14;;;;;;;9.00;8.10;;;31.50;83.10;;;;;;5013950;28;20149;-66
2021/07/23 10:47:50;;;;;;;12.07;8.85;;;31.50;82.40;;;;;;5014401;28;20014;-67
2021/07/23 10:50:25;;;;;;;10.00;8.98;;;31.30;86.00;;;;;;5003517;28;20022;-65
2021/07/23 10:52:51;;;;;;;11.40;8.68;;;31.60;83.40;;;;;;4994558;28;20070;-69
2021/07/23 10:55:27;;;;;;;9.25;8.35;;;31.90;82.80;;;;;;5003242;28;20036;-68
2021/07/23 10:58:05;;;;;;;9.35;8.35;;;31.80;82.90;;;;;;4992500;28;20044;-66
2021/07/23 11:00:51;;;;;;;11.18;8.43;;;32.20;84.60;;;;;;5013855;28;20022;-67
2021/07/23 11:03:39;;;;;;;9.85;8.90;;;31.70;78.70;;;;;;4982978;28;20027;-68
2021/07/23 11:06:21;;;;;;;10.90;8.15;;;32.00;81.50;;;;;;4993779;28;20023;-67
2021/07/23 11:08:52;;;;;;;10.27;9.27;;;32.40;81.30;;;;;;4994675;28;20022;-67
2021/07/23 11:11:20;;;;;;;9.70;8.73;;;31.40;79.30;;;;;;4994608;28;20023;-67
2021/07/23 11:13:46;;;;;;;9.80;8.48;;;31.20;80.80;;;;;;4994460;28;20041;-67
2021/07/23 11:16:22;;;;;;;9.57;8.55;;;31.30;81.70;;;;;;4993354;28;20432;-68
2021/07/23 11:18:56;;;;;;;9.45;8.55;;;31.10;79.60;;;;;;4976411;28;20566;-66
2021/07/23 11:21:23;;;;;;;9.90;7.88;;;30.50;79.00;;;;;;5003563;28;20085;-67
2021/07/23 11:23:50;;;;;;;11.40;8.88;;;30.60;80.50;;;;;;4994063;28;20030;-68
2021/07/23 11:26:24;;;;;;;9.27;8.35;;;31.40;82.00;;;;;;4997441;28;20494;-67
2021/07/23 11:28:53;;;;;;;9.73;8.75;;;31.60;78.70;;;;;;5013876;28;20037;-67
2021/07/23 11:31:33;;;;;;;9.98;8.38;;;31.60;78.90;;;;;;5013578;28;20028;-67
2021/07/23 11:34:25;;;;;;;9.70;8.75;;;31.80;82.10;;;;;;5013685;28;20369;-67
2021/07/23 11:36:52;;;;;;;11.13;8.77;;;32.50;81.20;;;;;;5012470;28;20026;-66
2021/07/23 11:39:20;;;;;;;14.65;9.40;;;32.80;74.90;;;;;;5013654;28;20049;-66
2021/07/23 11:42:05;;;;;;;14.13;8.90;;;32.80;75.90;;;;;;5014023;28;20025;-68
2021/07/23 11:44:31;;;;;;;11.98;8.38;;;31.40;77.90;;;;;;5013665;28;20037;-66
2021/07/23 11:46:58;;;;;;;9.63;8.73;;;31.00;81.60;;;;;;5013464;28;20050;-66
2021/07/23 11:49:30;;;;;;;16.80;9.40;;;30.50;82.90;;;;;;5013768;28;20056;-68
2021/07/23 11:51:56;;;;;;;9.02;8.20;;;31.00;83.90;;;;;;5014039;28;20091;-67
2021/07/23 11:54:21;;;;;;;12.07;9.50;;;31.80;83.90;;;;;;5015566;28;20029;-66
2021/07/23 11:56:47;;;;;;;9.65;8.65;;;32.40;82.50;;;;;;5025988;28;20048;-66
2021/07/23 11:59:13;;;;;;;9.45;8.18;;;32.90;77.70;;;;;;5000400;28;20041;-67
2021/07/23 12:01:41;;;;;;;9.85;8.48;;;33.00;77.80;;;;;;5015029;28;20065;-65
2021/07/23 12:04:08;;;;;;;11.07;8.43;;;32.90;75.10;;;;;;5014924;28;20495;-67
2021/07/23 12:06:39;;;;;;;13.15;8.85;;;32.90;74.00;;;;;;5001797;28;20117;-67
2021/07/23 12:09:08;;;;;;;10.32;9.32;;;31.70;72.80;;;;;;5011938;28;20036;-67
2021/07/23 12:11:34;;;;;;;11.77;8.93;;;31.30;77.60;;;;;;5009767;28;20022;-67
2021/07/23 12:14:08;;;;;;;9.95;8.95;;;31.80;76.30;;;;;;4993620;28;20034;-66
2021/07/23 12:16:34;;;;;;;10.57;9.45;;;31.50;77.80;;;;;;4993054;28;20488;-66
2021/07/23 12:19:04;;;;;;;16.05;9.05;;;30.80;76.10;;;;;;4993500;28;20048;-67
2021/07/23 12:21:30;;;;;;;12.32;9.23;;;30.90;76.90;;;;;;4994317;28;20158;-67
2021/07/23 12:23:57;;;;;;;12.57;8.93;;;31.70;78.60;;;;;;4993342;28;20473;-67
2021/07/23 12:26:37;;;;;;;9.30;8.30;;;32.70;75.20;;;;;;5008112;28;20018;-67
2021/07/23 12:29:08;;;;;;;13.15;8.93;;;33.30;75.00;;;;;;5012778;28;20026;-66
2021/07/23 12:31:34;;;;;;;10.15;8.75;;;34.10;71.70;;;;;;5012602;28;20088;-66
2021/07/23 12:34:05;;;;;;;11.95;8.40;;;34.20;69.20;;;;;;5012961;28;20381;-69